Terminal Aerodrome Forecast
Issued by NWS Lake Charles, LA

Home | Current Version | Previous Version | Text Only | Print | Product List | Glossary On
Versions: 1 2 3 4 5 6 7 8 9 10 11 12 13 14 15 16 17 18 19 20 21 22 23 24 25
000
FTUS44 KLCH 021100
TAFLCH
TAF
KLCH 021124Z 0212/0312 06005KT 3SM BR VCSH OVC004
      TEMPO 0213/0215 1/4SM FG VV001
     FM021600 07006KT 1/2SM -RA FG SCT004 OVC009
     FM022200 08004KT 2SM BR OVC003
     FM030000 09004KT 1SM BR OVC004
     FM031000 13005KT 1/2SM FG OVC002=

USA.gov is the U.S. government's official web portal to all federal, state and local government web resources and services.